WICT2: Wichita River At Wichita Falls, TX

Data processed at Wed Jun 17 2020 23:35


All information presented herein is the property of the government of the United States of America and may be revised or deleted at any time without prior notice.
Dissemination of this information without the expressed written consent of the Public Affairs Office, Tulsa District U.S. Army Corps of Engineers is strictly prohibited.
These data are gathered electronically and, as presented, have not undergone any form of quality control. These data are not guaranteed to be valid or correct.
Go to home page.
Go to station list.
Go to home page.

Upstream stations:

Downstream station:
Previous Day
Next Day
Current Day
    
SHEF ID:       WICT2     Wichita Rv at Wichita Falls, TX
STATION TYPE:  
Regulating: Stage =    18.50, Flow =     5434

               PRECIP     STAGE  RIV-FLOW  WTR-TEMP   CONDUCT  BAT-LOAD
                   in        ft       cfs         F   umho/cm      volt
              Ccp-Rev   Ccp-Rev   Ccp-Rev   Ccp-Rev   Ccp-Rev   Ccp-Rev
(US/Central)
06/17 00:00      ----      2.65        65     83.19      4891     12.65
06/17 01:00      ----      2.63        63     82.53      4883     12.65
06/17 02:00      ----      2.64        64     81.75      4882     12.65
06/17 03:00      ----      2.66        66     81.03      4887     12.65
06/17 04:00      ----      2.65        65     80.46      4900     12.65
06/17 05:00      ----      2.64        64     80.06      4908     12.57
06/17 06:00      ----      2.65        65     79.63      4904     12.57
06/17 07:00      ----      2.66        66     79.23      4886     12.57
06/17 08:00      ----      2.67        67     78.96      4883     12.65
06/17 09:00      ----      2.67        67     78.94      4875     12.65
06/17 10:00      ----      2.69        69     79.27      4870     13.37
06/17 11:00      ----      2.71        71     79.83      4859     13.29
06/17 12:00      ----      2.72        72     80.65      4847     13.13
06/17 13:00      ----      2.71        71     81.52      4844     13.05
06/17 14:00      ----      2.71        71     82.42      4871     13.05
06/17 15:00      ----      2.67        67     83.35      4872     12.89
06/17 16:00      ----      2.69        69     84.15      4847     12.89
06/17 17:00      ----      2.69        69     84.61      4805     12.81
06/17 18:00      ----      2.68        68     84.63      4763     12.81
06/17 19:00      ----      2.69        69     84.33      4784     12.81
06/17 20:00      ----      2.69        69     83.80      4782     12.73
06/17 21:00      ----      2.69        69     83.21      4761     12.73
06/17 22:00      ----      ----      ----      ----      ----      ----
06/17 23:00      ----      ----      ----      ----      ----      ----